Time;durP1;ratioP1;P1;durP2;ratioP2;P2;SDS_P1;SDS_P2;PMS_P1;PMS_P2;Temp;Humidity;BMP_temperature;BMP_pressure;BME280_temperature;BME280_humidity;BME280_pressure;Samples;Min_cycle;Max_cycle;Signal;HPM_P1;HPM_P2
2021/03/11 00:01:41;;;;;;;10.93;6.37;;;;;;;-4.91;100.00;100853.01;1747635;82;21022;-80
2021/03/11 00:04:09;;;;;;;20.43;8.50;;;;;;;-4.91;100.00;100852.54;1717693;83;21054;-77
2021/03/11 00:06:37;;;;;;;14.80;5.93;;;;;;;-4.93;100.00;100855.70;1747186;82;20954;-79
2021/03/11 00:09:05;;;;;;;11.23;6.20;;;;;;;-4.94;100.00;100858.38;1717472;83;21181;-79
2021/03/11 00:11:35;;;;;;;15.70;6.47;;;;;;;-4.97;100.00;100860.22;1747184;82;21042;-80
2021/03/11 00:14:03;;;;;;;14.37;5.37;;;;;;;-5.00;100.00;100864.27;1717384;83;21468;-79
2021/03/11 00:16:31;;;;;;;8.90;4.70;;;;;;;-5.03;100.00;100861.76;1747113;82;21077;-78
2021/03/11 00:18:59;;;;;;;9.10;3.83;;;;;;;-5.05;100.00;100860.92;1720767;83;21019;-78
2021/03/11 00:21:27;;;;;;;14.03;4.57;;;;;;;-5.07;100.00;100868.49;1794803;80;20923;-78
2021/03/11 00:23:55;;;;;;;4.83;3.60;;;;;;;-5.10;100.00;100863.31;1724466;83;21576;-78
2021/03/11 00:26:23;;;;;;;5.37;3.70;;;;;;;-5.11;100.00;100862.45;1724537;83;21635;-78
2021/03/11 00:28:51;;;;;;;5.93;3.40;;;;;;;-5.13;100.00;100862.97;1794627;80;20990;-78
2021/03/11 00:31:19;;;;;;;8.17;2.90;;;;;;;-5.14;100.00;100861.23;1724520;83;21195;-78
2021/03/11 00:33:47;;;;;;;2.40;2.03;;;;;;;-5.16;100.00;100863.06;1798486;78;21120;-78
2021/03/11 00:36:15;;;;;;;4.80;2.50;;;;;;;-5.18;100.00;100859.63;1814929;79;21192;-78
2021/03/11 00:38:43;;;;;;;3.83;2.47;;;;;;;-5.17;100.00;100856.05;1783614;79;20947;-77
2021/03/11 00:41:11;;;;;;;3.70;2.17;;;;;;;-5.19;100.00;100856.56;1814964;79;20995;-79
2021/03/11 00:43:40;;;;;;;2.53;1.93;;;;;;;-5.20;100.00;100849.12;1814820;79;21201;-78
2021/03/11 00:46:08;;;;;;;3.27;2.20;;;;;;;-5.21;100.00;100850.02;1776544;80;20911;-78
2021/03/11 00:48:36;;;;;;;6.57;3.23;;;;;;;-5.20;100.00;100842.99;1814938;79;21377;-78
2021/03/11 00:51:06;;;;;;;5.30;2.60;;;;;;;-5.18;100.00;100845.12;1814790;79;20991;-79
2021/03/11 00:53:36;;;;;;;6.77;2.87;;;;;;;-5.18;100.00;100839.84;1772157;80;21061;-77
2021/03/11 00:56:06;;;;;;;6.53;3.13;;;;;;;-5.18;100.00;100840.70;1814688;79;21011;-78
2021/03/11 00:58:34;;;;;;;5.47;2.90;;;;;;;-5.18;100.00;100837.20;1776532;80;21001;-79
2021/03/11 01:01:03;;;;;;;4.50;2.27;;;;;;;-5.17;100.00;100834.52;1814842;79;21358;-78
2021/03/11 01:03:33;;;;;;;2.00;1.53;;;;;;;-5.19;100.00;100831.52;1772250;80;21585;-78
2021/03/11 01:06:02;;;;;;;3.40;2.43;;;;;;;-5.18;100.00;100834.57;1784193;79;20995;-78
2021/03/11 01:08:32;;;;;;;5.33;3.20;;;;;;;-5.19;100.00;100824.48;1810312;79;21015;-79
2021/03/11 01:11:00;;;;;;;4.63;2.67;;;;;;;-5.18;100.00;100824.02;1814882;79;20991;-79
2021/03/11 01:13:28;;;;;;;2.80;2.10;;;;;;;-5.17;100.00;100827.05;1814902;79;22024;-78
2021/03/11 01:15:56;;;;;;;9.17;3.77;;;;;;;-5.16;100.00;100824.36;1815005;79;20904;-78
2021/03/11 01:18:24;;;;;;;4.27;2.80;;;;;;;-5.16;100.00;100821.72;1810493;78;21015;-78
2021/03/11 01:20:52;;;;;;;5.77;3.70;;;;;;;-5.15;100.00;100822.61;1779895;80;21403;-79
2021/03/11 01:23:20;;;;;;;4.83;2.83;;;;;;;-5.18;100.00;100818.28;1779886;80;21000;-79
2021/03/11 01:25:49;;;;;;;3.33;2.73;;;;;;;-5.17;100.00;100819.14;1779891;80;21531;-79
2021/03/11 01:28:17;;;;;;;7.60;3.73;;;;;;;-5.19;100.00;100818.33;1779521;80;20941;-79
2021/03/11 01:30:45;;;;;;;3.33;2.53;;;;;;;-5.21;100.00;100822.80;1775308;80;20978;-79
2021/03/11 01:33:13;;;;;;;5.90;3.13;;;;;;;-5.23;100.00;100816.25;1738647;82;21002;-79
2021/03/11 01:35:41;;;;;;;5.00;2.30;;;;;;;-5.23;100.00;100822.84;1713907;82;21009;-79
2021/03/11 01:38:09;;;;;;;2.47;2.27;;;;;;;-5.24;100.00;100825.53;1806519;79;22524;-79
2021/03/11 01:40:37;;;;;;;6.47;3.53;;;;;;;-5.27;100.00;100823.87;1727815;82;20962;-79
2021/03/11 01:43:05;;;;;;;5.17;3.07;;;;;;;-5.29;100.00;100830.98;1806569;79;20998;-79
2021/03/11 01:45:33;;;;;;;10.30;4.30;;;;;;;-5.28;100.00;100831.36;1806384;79;20970;-79
2021/03/11 01:48:01;;;;;;;5.30;3.00;;;;;;;-5.31;100.00;100837.19;1727633;83;21006;-79
2021/03/11 01:50:30;;;;;;;5.10;3.00;;;;;;;-5.34;100.00;100837.70;1806565;79;22214;-79
2021/03/11 01:52:59;;;;;;;6.63;4.03;;;;;;;-5.37;100.00;100836.95;1727772;83;21034;-79
2021/03/11 01:55:28;;;;;;;5.37;2.90;;;;;;;-5.41;100.00;100834.87;1806330;79;21002;-80
2021/03/11 01:57:56;;;;;;;5.40;3.63;;;;;;;-5.42;100.00;100838.87;1806318;79;20922;-79
2021/03/11 02:00:25;;;;;;;8.27;3.60;;;;;;;-5.44;100.00;100837.59;1775499;79;20990;-79
2021/03/11 02:02:53;;;;;;;8.53;3.60;;;;;;;-5.47;100.00;100841.67;1806550;79;21350;-80
2021/03/11 02:05:22;;;;;;;5.83;3.30;;;;;;;-5.48;100.00;100842.56;1775775;79;21026;-79
2021/03/11 02:07:50;;;;;;;6.33;3.23;;;;;;;-5.50;100.00;100840.44;1727807;82;20986;-79
2021/03/11 02:10:22;;;;;;;6.43;4.27;;;;;;;-5.53;100.00;100842.70;1806440;79;21798;-79
2021/03/11 02:13:28;;;;;;;5.57;3.80;;;;;;;-5.55;100.00;100846.31;1727958;83;20974;-80
2021/03/11 02:16:06;;;;;;;15.10;4.33;;;;;;;-5.60;100.00;100850.86;1807495;79;21650;-80
2021/03/11 02:18:43;;;;;;;5.17;3.30;;;;;;;-5.62;100.00;100850.06;1729110;81;20970;-79
2021/03/11 02:21:26;;;;;;;5.50;3.33;;;;;;;-5.61;100.00;100847.37;1891269;76;22705;-78
2021/03/11 02:24:32;;;;;;;4.47;2.30;;;;;;;-5.66;100.00;100847.97;1778490;80;21012;-80
2021/03/11 02:27:23;;;;;;;8.37;3.63;;;;;;;-5.68;100.00;100847.59;1714552;83;21208;-80
2021/03/11 02:29:53;;;;;;;7.63;3.30;;;;;;;-5.71;100.00;100853.84;1785620;80;21388;-79
2021/03/11 02:32:23;;;;;;;7.27;3.60;;;;;;;-5.74;100.00;100848.66;1788259;80;20965;-79
2021/03/11 02:34:57;;;;;;;7.47;3.73;;;;;;;-5.75;100.00;100856.17;1772501;80;21000;-79
2021/03/11 02:37:33;;;;;;;4.13;2.80;;;;;;;-5.77;100.00;100861.48;1763287;81;21050;-80
2021/03/11 02:40:07;;;;;;;6.37;3.00;;;;;;;-5.78;100.00;100857.58;1763321;81;21208;-80
2021/03/11 02:42:35;;;;;;;8.00;3.77;;;;;;;-5.79;100.00;100854.52;1763051;81;20973;-80
2021/03/11 02:45:05;;;;;;;5.97;3.17;;;;;;;-5.82;100.00;100853.32;1763260;81;21088;-80
2021/03/11 02:47:34;;;;;;;2.80;2.27;;;;;;;-5.85;100.00;100854.72;1763396;81;20961;-79
2021/03/11 02:50:04;;;;;;;2.40;2.17;;;;;;;-5.90;100.00;100853.53;1763416;81;21008;-80
2021/03/11 02:52:33;;;;;;;3.67;3.17;;;;;;;-5.91;100.00;100855.31;1763672;81;22115;-79
2021/03/11 02:55:04;;;;;;;4.47;3.10;;;;;;;-5.93;100.00;100849.70;1759828;81;20949;-80
2021/03/11 02:57:32;;;;;;;2.73;2.43;;;;;;;-5.96;100.00;100851.13;1763768;81;21013;-79
2021/03/11 03:00:00;;;;;;;3.53;2.93;;;;;;;-5.98;100.00;100860.39;1763311;81;21103;-80
2021/03/11 03:02:28;;;;;;;8.90;4.30;;;;;;;-5.99;100.00;100856.48;1713247;81;20925;-79
2021/03/11 03:04:57;;;;;;;4.87;2.47;;;;;;;-5.98;100.00;100856.91;1783134;80;21502;-80
2021/03/11 03:07:26;;;;;;;3.90;2.83;;;;;;;-5.99;100.00;100859.12;1789222;80;21020;-80
2021/03/11 03:09:55;;;;;;;3.97;2.77;;;;;;;-6.00;100.00;100867.48;1789385;80;20985;-80
2021/03/11 03:12:24;;;;;;;6.40;3.50;;;;;;;-6.00;100.00;100860.02;1788969;80;21048;-80
2021/03/11 03:14:53;;;;;;;5.67;3.33;;;;;;;-6.02;100.00;100870.62;1788990;80;20961;-79
2021/03/11 03:17:21;;;;;;;4.97;2.37;;;;;;;-6.04;100.00;100872.87;1789012;80;21370;-80
2021/03/11 03:19:50;;;;;;;3.90;2.23;;;;;;;-6.07;100.00;100870.31;1793816;78;20983;-81
2021/03/11 03:22:18;;;;;;;5.53;3.20;;;;;;;-6.09;100.00;100867.76;1821524;78;20923;-80
2021/03/11 03:24:47;;;;;;;3.23;2.10;;;;;;;-6.08;100.00;100870.78;1821755;78;20908;-80
2021/03/11 03:27:17;;;;;;;5.30;3.00;;;;;;;-6.09;100.00;100869.08;1822066;78;20937;-79
2021/03/11 03:29:45;;;;;;;5.20;3.07;;;;;;;-6.11;100.00;100866.48;1822146;78;21201;-80
2021/03/11 03:32:14;;;;;;;4.83;2.97;;;;;;;-6.12;100.00;100866.06;1827628;78;20934;-80
2021/03/11 03:34:43;;;;;;;4.23;3.07;;;;;;;-6.13;100.00;100869.59;1844559;77;20928;-81
2021/03/11 03:37:11;;;;;;;9.53;4.30;;;;;;;-6.14;100.00;100870.98;1855297;77;20991;-79
2021/03/11 03:39:39;;;;;;;7.80;3.70;;;;;;;-6.16;100.00;100876.28;1855336;77;20916;-80
2021/03/11 03:42:10;;;;;;;7.40;3.67;;;;;;;-6.16;100.00;100867.06;1827537;77;21454;-80
2021/03/11 03:44:38;;;;;;;9.20;4.43;;;;;;;-6.16;100.00;100868.81;1855326;77;20915;-82
2021/03/11 03:47:06;;;;;;;2.83;2.30;;;;;;;-6.17;100.00;100874.54;1855220;77;21014;-80
2021/03/11 03:49:35;;;;;;;4.33;2.53;;;;;;;-6.18;100.00;100870.20;1855184;77;20915;-80
2021/03/11 03:52:04;;;;;;;6.80;3.37;;;;;;;-6.20;100.00;100871.98;1855703;77;20970;-80
2021/03/11 03:54:34;;;;;;;6.73;3.10;;;;;;;-6.21;100.00;100870.28;1801362;77;21093;-79
2021/03/11 03:57:06;;;;;;;8.63;3.67;;;;;;;-6.24;100.00;100872.14;1855612;77;20967;-80
2021/03/11 03:59:39;;;;;;;11.03;3.90;;;;;;;-6.26;100.00;100878.77;1855773;77;21018;-79
2021/03/11 04:02:11;;;;;;;4.20;2.70;;;;;;;-6.31;100.00;100878.02;1855703;77;20915;-80
2021/03/11 04:04:47;;;;;;;5.77;3.83;;;;;;;-6.34;100.00;100877.67;1855658;77;21013;-80
2021/03/11 04:07:25;;;;;;;5.00;3.40;;;;;;;-6.36;100.00;100879.46;1855559;77;21429;-80
2021/03/11 04:09:53;;;;;;;8.27;3.80;;;;;;;-6.37;100.00;100882.16;1855607;77;21069;-81
2021/03/11 04:12:22;;;;;;;5.20;3.23;;;;;;;-6.39;100.00;100885.27;1856090;77;20975;-79
2021/03/11 04:14:50;;;;;;;6.80;3.50;;;;;;;-6.40;100.00;100888.36;1856271;77;21250;-80
2021/03/11 04:17:19;;;;;;;6.23;3.30;;;;;;;-6.41;100.00;100894.97;1856153;77;21381;-80
2021/03/11 04:19:48;;;;;;;5.20;2.80;;;;;;;-6.41;100.00;100893.23;1857454;76;21309;-81
2021/03/11 04:22:17;;;;;;;6.83;3.73;;;;;;;-6.40;100.00;100893.62;1832059;77;20908;-80
2021/03/11 04:24:45;;;;;;;4.37;2.40;;;;;;;-6.40;100.00;100888.81;1864034;76;20989;-79
2021/03/11 04:27:14;;;;;;;5.33;2.90;;;;;;;-6.38;100.00;100904.11;1864461;77;20987;-80
2021/03/11 04:29:44;;;;;;;3.13;2.13;;;;;;;-6.38;100.00;100899.70;1864247;76;20998;-80
2021/03/11 04:32:15;;;;;;;4.57;2.87;;;;;;;-6.37;100.00;100892.69;1863593;77;21351;-80
2021/03/11 04:34:47;;;;;;;3.20;1.95;;;;;;;-6.36;100.00;100905.78;1843446;77;26666;-80
2021/03/11 04:37:16;;;;;;;4.67;2.93;;;;;;;-6.36;100.00;100907.09;1793553;80;21017;-81
2021/03/11 04:39:47;;;;;;;5.53;3.17;;;;;;;-6.35;100.00;100906.66;1793562;80;20890;-81
2021/03/11 04:42:16;;;;;;;4.50;2.60;;;;;;;-6.33;100.00;100908.80;1793703;80;20993;-80
2021/03/11 04:44:44;;;;;;;6.37;2.97;;;;;;;-6.32;100.00;100902.61;1793672;80;21444;-80
2021/03/11 04:47:14;;;;;;;7.43;3.03;;;;;;;-6.32;100.00;100906.55;1793328;80;20985;-80
2021/03/11 04:49:43;;;;;;;4.47;2.57;;;;;;;-6.31;100.00;100914.41;1793348;80;21004;-81
2021/03/11 04:52:12;;;;;;;3.43;3.13;;;;;;;-6.28;100.00;100915.23;1793528;80;21001;-82
2021/03/11 04:54:43;;;;;;;8.23;3.40;;;;;;;-6.28;100.00;100917.86;1733874;80;21411;-81
2021/03/11 04:57:13;;;;;;;5.03;2.87;;;;;;;-6.28;100.00;100916.11;1793894;80;21256;-81
2021/03/11 04:59:41;;;;;;;4.80;3.23;;;;;;;-6.26;100.00;100922.66;1762822;80;21072;-81
2021/03/11 05:02:10;;;;;;;7.80;4.20;;;;;;;-6.26;100.00;100918.25;1793681;80;21036;-80
2021/03/11 05:04:42;;;;;;;4.87;2.67;;;;;;;-6.25;100.00;100925.68;1793577;80;21059;-79
2021/03/11 05:07:16;;;;;;;4.23;2.80;;;;;;;-6.25;100.00;100931.83;1793538;80;21507;-79
2021/03/11 05:09:45;;;;;;;3.00;2.67;;;;;;;-6.23;100.00;100931.77;1793567;80;21163;-79
2021/03/11 05:12:15;;;;;;;8.23;4.07;;;;;;;-6.18;100.00;100933.81;1793441;80;21024;-79
2021/03/11 05:14:43;;;;;;;5.80;3.30;;;;;;;-6.14;100.00;100940.28;1793396;80;20989;-81
2021/03/11 05:17:11;;;;;;;6.80;3.73;;;;;;;-6.06;100.00;100933.94;1793392;80;20941;-80
2021/03/11 05:19:41;;;;;;;5.47;3.33;;;;;;;-5.99;100.00;100934.17;1793333;80;21044;-80
2021/03/11 05:22:09;;;;;;;9.70;3.80;;;;;;;-5.91;100.00;100933.47;1762662;80;22440;-80
2021/03/11 05:24:37;;;;;;;4.00;2.77;;;;;;;-5.80;100.00;100934.48;1793403;80;20934;-80
2021/03/11 05:27:07;;;;;;;7.40;3.20;;;;;;;-5.69;100.00;100938.11;1788630;80;20965;-82
2021/03/11 05:29:37;;;;;;;5.17;3.27;;;;;;;-5.59;100.00;100933.83;1805772;79;20934;-80
2021/03/11 05:32:07;;;;;;;6.00;2.80;;;;;;;-5.46;100.00;100936.95;1793087;80;20913;-82
2021/03/11 05:34:36;;;;;;;6.63;3.40;;;;;;;-5.34;100.00;100939.20;1783095;79;21542;-81
2021/03/11 05:37:04;;;;;;;6.20;3.80;;;;;;;-5.25;100.00;100933.25;1783610;80;20997;-80
2021/03/11 05:39:33;;;;;;;3.43;3.13;;;;;;;-5.16;100.00;100931.16;1783390;79;21001;-80
2021/03/11 05:42:01;;;;;;;3.57;2.37;;;;;;;-5.06;100.00;100936.17;1783196;80;21029;-80
2021/03/11 05:44:29;;;;;;;5.83;3.07;;;;;;;-4.99;100.00;100937.23;1783078;80;20935;-80
2021/03/11 05:46:57;;;;;;;8.87;3.67;;;;;;;-4.91;100.00;100944.02;1753249;80;21830;-80
2021/03/11 05:49:27;;;;;;;8.77;3.67;;;;;;;-4.82;100.00;100944.56;1783182;80;20941;-80
2021/03/11 05:51:55;;;;;;;4.43;3.10;;;;;;;-4.74;100.00;100950.08;1782990;79;21017;-80
2021/03/11 05:54:24;;;;;;;4.00;3.13;;;;;;;-4.62;100.00;100941.72;1782779;80;21020;-80
2021/03/11 05:56:52;;;;;;;5.27;3.10;;;;;;;-4.51;100.00;100947.98;1782630;79;21539;-80
2021/03/11 05:59:20;;;;;;;3.80;2.70;;;;;;;-4.40;100.00;100948.45;1782679;80;21412;-80
2021/03/11 06:01:49;;;;;;;5.80;3.37;;;;;;;-4.28;100.00;100948.49;1782266;80;21594;-79
2021/03/11 06:04:17;;;;;;;3.83;2.63;;;;;;;-4.14;100.00;100945.33;1782321;80;20978;-80
2021/03/11 06:06:47;;;;;;;7.13;3.17;;;;;;;-4.03;100.00;100945.83;1782270;79;21365;-79
2021/03/11 06:09:18;;;;;;;6.77;3.17;;;;;;;-3.90;100.00;100944.91;1782555;79;21013;-78
2021/03/11 06:11:46;;;;;;;5.67;3.53;;;;;;;-3.76;100.00;100945.72;1782242;80;21570;-76
2021/03/11 06:14:17;;;;;;;5.50;2.87;;;;;;;-3.62;100.00;100942.09;1782235;79;20950;-78
2021/03/11 06:16:59;;;;;;;5.00;3.03;;;;;;;-3.50;100.00;100932.84;1769385;79;20989;-78
2021/03/11 06:19:30;;;;;;;4.80;2.60;;;;;;;-3.38;100.00;100936.77;1766346;81;21024;-78
2021/03/11 06:22:04;;;;;;;4.23;2.73;;;;;;;-3.27;100.00;100941.20;1770166;79;21004;-80
2021/03/11 06:24:54;;;;;;;17.07;3.50;;;;;;;-3.22;100.00;100944.96;1772835;79;21930;-78
2021/03/11 06:27:22;;;;;;;8.33;2.80;;;;;;;-3.14;100.00;100945.06;1767330;81;21080;-78
2021/03/11 06:29:51;;;;;;;5.47;2.77;;;;;;;-3.06;100.00;100944.77;1789355;79;21013;-79
2021/03/11 06:32:19;;;;;;;4.50;2.77;;;;;;;-2.94;100.00;100955.30;1799590;79;20945;-80
2021/03/11 06:34:47;;;;;;;6.37;3.17;;;;;;;-2.82;98.92;100941.56;1799288;78;21041;-79
2021/03/11 06:37:16;;;;;;;9.10;3.30;;;;;;;-2.69;98.27;100946.77;1799723;79;21654;-80
2021/03/11 06:39:45;;;;;;;5.17;2.73;;;;;;;-2.56;95.08;100955.05;1794952;79;21009;-79
2021/03/11 06:42:14;;;;;;;5.87;3.90;;;;;;;-2.43;94.30;100959.82;1799075;79;21526;-77
2021/03/11 06:44:46;;;;;;;5.60;3.40;;;;;;;-2.30;94.20;100962.36;1745407;79;21535;-78
2021/03/11 06:47:17;;;;;;;13.65;3.35;;;;;;;-2.23;90.86;100959.84;1798930;79;21167;-78
2021/03/11 06:50:01;;;;;;;5.77;2.43;;;;;;;-2.15;90.18;100963.47;1798740;79;21519;-76
2021/03/11 06:52:29;;;;;;;4.17;2.83;;;;;;;-2.06;88.62;100959.55;1798730;79;21005;-75
2021/03/11 06:55:05;;;;;;;12.47;4.50;;;;;;;-1.99;86.44;100961.85;1798819;79;20947;-77
2021/03/11 06:57:38;;;;;;;5.50;3.03;;;;;;;-1.93;85.19;100967.34;1735967;82;21038;-75
2021/03/11 07:00:18;;;;;;;9.30;3.57;;;;;;;-1.82;85.90;100965.56;1729997;81;21061;-80
2021/03/11 07:02:57;;;;;;;6.23;2.77;;;;;;;-1.73;82.24;100966.47;1721545;82;21877;-76
2021/03/11 07:05:28;;;;;;;9.93;3.00;;;;;;;-1.70;82.22;100971.61;1733383;82;20985;-77
2021/03/11 07:08:11;;;;;;;15.43;3.67;;;;;;;-1.52;82.30;100965.95;1807717;77;25371;-74
2021/03/11 07:10:39;;;;;;;5.70;3.13;;;;;;;-1.44;79.59;100970.41;1764128;80;20998;-75
2021/03/11 07:13:07;;;;;;;8.37;3.93;;;;;;;-1.29;79.54;100979.47;1768648;81;21040;-76
2021/03/11 07:15:37;;;;;;;6.80;3.50;;;;;;;-1.17;75.71;100980.22;1751239;80;21077;-82
2021/03/11 07:18:10;;;;;;;3.77;3.17;;;;;;;-1.16;75.08;100975.28;1741205;81;20989;-83
2021/03/11 07:20:38;;;;;;;4.73;2.97;;;;;;;-1.17;74.16;100973.58;1758115;81;20984;-83
2021/03/11 07:23:09;;;;;;;7.90;2.93;;;;;;;-1.10;74.80;100973.27;1759678;81;21037;-81
2021/03/11 07:25:40;;;;;;;;;;;;;;;-0.93;76.09;100968.48;1700452;83;21115;-84
2021/03/11 07:28:10;;;;;;;4.73;3.10;;;;;;;-0.68;76.94;100967.66;1698084;83;20458;-84
2021/03/11 07:30:53;;;;;;;11.20;3.37;;;;;;;-0.46;74.25;100970.56;1649315;84;21032;-79
2021/03/11 07:33:31;;;;;;;7.97;2.77;;;;;;;-0.41;69.03;100974.73;1674127;84;20982;-78
2021/03/11 07:36:08;;;;;;;7.90;2.73;;;;;;;-0.45;66.42;100975.80;1831292;77;26875;-78
2021/03/11 07:38:37;;;;;;;4.60;3.20;;;;;;;-0.44;66.22;100978.86;1808944;78;20956;-77
2021/03/11 07:41:08;;;;;;;3.93;2.80;;;;;;;-0.34;67.61;100973.08;1816371;79;21190;-77
2021/03/11 07:43:38;;;;;;;7.17;2.70;;;;;;;-0.17;66.33;100974.88;1815990;79;21084;-78
2021/03/11 07:46:06;;;;;;;5.80;2.70;;;;;;;-0.06;64.44;100970.70;1789756;79;21025;-79
2021/03/11 07:48:35;;;;;;;9.80;2.97;;;;;;;-0.05;61.08;100975.58;1817313;79;20893;-81
2021/03/11 07:51:04;;;;;;;4.77;1.90;;;;;;;-0.13;59.99;100975.95;1791901;79;21086;-78
2021/03/11 07:53:33;;;;;;;6.33;3.13;;;;;;;-0.14;60.90;100966.72;1785121;79;21509;-81
2021/03/11 07:56:01;;;;;;;5.40;3.43;;;;;;;-0.04;62.32;100962.65;1787732;79;21018;-80
2021/03/11 07:58:31;;;;;;;3.27;2.40;;;;;;;0.11;61.11;100971.64;1792109;79;21123;-81
2021/03/11 08:01:03;;;;;;;4.43;2.60;;;;;;;0.16;59.19;100962.91;1817002;79;21056;-80
2021/03/11 08:03:32;;;;;;;5.95;3.33;;;;;;;0.28;60.10;100969.39;1817249;79;20997;-79
2021/03/11 08:06:30;;;;;;;5.60;3.40;;;;;;;0.44;59.21;100956.12;1809946;79;21197;-82
2021/03/11 08:09:38;;;;;;;7.13;4.00;;;;;;;0.64;59.70;100953.69;1891275;76;26727;-78
2021/03/11 08:12:39;;;;;;;3.80;2.97;;;;;;;0.67;58.94;100958.84;1783309;78;20957;-79
2021/03/11 08:15:18;;;;;;;5.80;3.47;;;;;;;0.70;59.06;100948.03;1809313;78;21459;-80
2021/03/11 08:17:48;;;;;;;8.53;3.53;;;;;;;0.82;57.90;100951.83;1812993;78;21091;-78
2021/03/11 08:20:22;;;;;;;4.67;2.90;;;;;;;0.91;57.69;100952.63;1826697;78;20987;-82
2021/03/11 08:22:56;;;;;;;6.77;3.27;;;;;;;1.00;56.53;100947.27;1822715;78;20942;-82
2021/03/11 08:25:40;;;;;;;5.77;2.67;;;;;;;0.99;55.65;100946.38;1811059;78;21014;-78
2021/03/11 08:28:11;;;;;;;;;;;;;;;1.02;55.59;100952.88;1808606;78;21715;-79
2021/03/11 08:30:50;;;;;;;10.32;4.58;;;;;;;1.05;54.72;100954.52;1823438;78;20194;-79
2021/03/11 08:33:29;;;;;;;8.03;3.90;;;;;;;0.97;55.25;100947.42;1814969;78;20937;-80
2021/03/11 08:36:00;;;;;;;7.47;4.47;;;;;;;0.90;55.61;100953.11;1808077;78;21474;-77
2021/03/11 08:38:36;;;;;;;5.67;2.73;;;;;;;0.83;56.40;100955.70;1814623;78;21150;-79
2021/03/11 08:41:09;;;;;;;11.30;4.03;;;;;;;0.90;57.78;100962.44;1816634;78;21185;-79
2021/03/11 08:43:47;;;;;;;11.40;5.27;;;;;;;1.07;58.07;100949.95;1836532;76;26883;-82
2021/03/11 08:46:21;;;;;;;7.03;4.03;;;;;;;1.13;58.65;100952.25;1728905;82;20961;-78
2021/03/11 08:48:57;;;;;;;7.73;3.97;;;;;;;1.27;56.45;100952.80;1673175;84;21210;-80
2021/03/11 08:51:35;;;;;;;7.93;3.33;;;;;;;1.26;55.34;100961.27;1719457;82;21145;-79
2021/03/11 08:54:10;;;;;;;7.90;3.43;;;;;;;1.25;55.06;100953.36;1730894;81;21192;-76
2021/03/11 08:56:41;;;;;;;10.83;3.87;;;;;;;1.27;54.18;100954.12;1702661;83;21126;-81
2021/03/11 08:59:17;;;;;;;5.80;3.67;;;;;;;1.15;52.97;100955.69;1725710;81;21109;-80
2021/03/11 09:01:51;;;;;;;10.93;3.03;;;;;;;0.89;52.54;100959.37;1740958;80;21212;-80
2021/03/11 09:04:30;;;;;;;9.90;2.93;;;;;;;0.72;52.36;100957.64;1753341;82;21084;-78
2021/03/11 09:07:09;;;;;;;6.93;3.20;;;;;;;0.54;52.91;100964.84;1752936;82;21137;-80
2021/03/11 09:09:48;;;;;;;7.00;3.37;;;;;;;0.54;55.41;100958.19;1743263;82;21164;-80
2021/03/11 09:12:25;;;;;;;7.80;2.97;;;;;;;0.80;56.01;100952.36;1759404;81;21637;-80
2021/03/11 09:14:57;;;;;;;5.97;2.70;;;;;;;1.01;55.95;100951.17;1753831;81;21036;-80
2021/03/11 09:17:28;;;;;;;8.10;3.77;;;;;;;1.22;55.45;100955.75;1700391;83;21045;-80
2021/03/11 09:20:08;;;;;;;11.80;4.50;;;;;;;1.38;54.06;100957.50;1811967;77;26933;-77
2021/03/11 09:22:38;;;;;;;6.63;3.10;;;;;;;1.20;52.71;100953.61;1763516;80;21041;-78
2021/03/11 09:25:17;;;;;;;12.23;4.17;;;;;;;0.91;52.26;100960.14;1738426;81;21090;-80
2021/03/11 09:28:07;;;;;;;23.97;9.23;;;;;;;0.91;54.68;100953.48;1754082;80;21049;-79
2021/03/11 09:30:38;;;;;;;11.50;3.73;;;;;;;1.14;57.13;100945.99;1757621;80;21044;-81
2021/03/11 09:33:21;;;;;;;16.70;7.07;;;;;;;1.40;54.91;100949.81;1752302;79;21006;-78
2021/03/11 09:35:51;;;;;;;55.55;17.32;;;;;;;1.46;53.85;100948.11;1777609;79;20929;-79
2021/03/11 09:38:26;;;;;;;126.57;36.50;;;;;;;1.45;53.18;100954.86;1785756;80;21609;-78
2021/03/11 09:40:57;;;;;;;67.23;24.50;;;;;;;1.33;52.33;100953.79;1785655;80;20933;-80
2021/03/11 09:43:33;;;;;;;15.10;6.93;;;;;;;1.24;53.15;100953.84;1786011;80;21024;-76
2021/03/11 09:46:15;;;;;;;8.93;3.43;;;;;;;1.39;53.99;100948.56;1785642;80;21012;-79
2021/03/11 09:48:46;;;;;;;5.17;2.90;;;;;;;1.45;53.00;100948.19;1776148;80;21013;-76
2021/03/11 09:51:24;;;;;;;7.13;3.43;;;;;;;1.48;53.88;100940.02;1766517;80;21271;-77
2021/03/11 09:53:56;;;;;;;11.13;3.93;;;;;;;1.60;54.18;100945.11;1766004;80;21005;-78
2021/03/11 09:56:41;;;;;;;18.40;5.10;;;;;;;1.57;53.01;100948.80;1704052;82;20996;-77
2021/03/11 09:59:11;;;;;;;27.83;8.63;;;;;;;1.43;52.69;100943.43;1737154;82;21068;-77
2021/03/11 10:01:44;;;;;;;22.80;6.70;;;;;;;1.40;54.36;100936.94;1706120;82;21213;-77
2021/03/11 10:04:16;;;;;;;15.30;4.60;;;;;;;1.47;54.26;100940.51;1700264;83;21519;-76
2021/03/11 10:06:49;;;;;;;9.33;3.87;;;;;;;1.38;54.01;100939.72;1689693;83;21078;-78
2021/03/11 10:09:17;;;;;;;9.58;3.17;;;;;;;1.19;52.86;100945.71;1694458;84;21003;-78
2021/03/11 10:11:53;;;;;;;8.37;3.33;;;;;;;0.89;52.82;100939.40;1689716;83;21255;-75
2021/03/11 10:14:30;;;;;;;17.23;5.20;;;;;;;0.90;53.98;100935.81;1902279;75;27036;-76
2021/03/11 10:17:03;;;;;;;12.77;5.67;;;;;;;0.99;55.86;100932.21;1804104;79;21484;-78
2021/03/11 10:19:35;;;;;;;8.57;3.23;;;;;;;1.28;56.61;100925.22;1820078;78;21140;-79
2021/03/11 10:22:06;;;;;;;7.53;3.37;;;;;;;1.55;55.16;100933.38;1745462;82;21218;-80
2021/03/11 10:24:43;;;;;;;31.93;11.20;;;;;;;1.46;53.74;100928.12;1745713;81;21097;-77
2021/03/11 10:27:30;;;;;;;48.53;14.43;;;;;;;1.22;52.81;100932.22;1798469;79;21179;-78
2021/03/11 10:33:04;;;;;;;10.27;4.77;;;;;;;0.67;52.01;100933.56;1830562;77;26628;-79
2021/03/11 10:35:38;;;;;;;8.73;3.63;;;;;;;0.40;52.23;100923.50;1780791;79;21294;-79
2021/03/11 10:40:54;;;;;;;6.80;3.40;;;;;;;0.41;54.47;100925.68;1679343;85;20998;-75
2021/03/11 10:43:30;;;;;;;8.67;2.70;;;;;;;0.61;54.06;100920.12;1822651;76;26877;-76
2021/03/11 10:45:59;;;;;;;9.70;3.23;;;;;;;0.58;53.81;100930.94;1723047;82;21084;-81
2021/03/11 10:48:29;;;;;;;12.50;3.30;;;;;;;0.40;53.79;100930.16;1741741;81;21653;-76
2021/03/11 10:50:58;;;;;;;3.60;3.00;;;;;;;0.23;54.69;100932.42;1765421;80;21009;-77
2021/03/11 10:53:38;;;;;;;10.03;3.63;;;;;;;0.14;55.23;100928.90;1742684;81;21038;-76
2021/03/11 10:56:08;;;;;;;26.67;7.63;;;;;;;0.04;56.60;100929.03;1748423;81;21364;-77
2021/03/11 10:58:38;;;;;;;7.73;3.70;;;;;;;0.06;58.98;100923.16;1759578;81;21076;-74
2021/03/11 11:01:17;;;;;;;8.63;3.70;;;;;;;0.04;59.00;100921.05;1741224;82;21740;-77
2021/03/11 11:03:47;;;;;;;15.33;5.27;;;;;;;0.08;59.96;100910.63;1749330;80;21104;-78
2021/03/11 11:06:15;;;;;;;20.07;5.93;;;;;;;0.18;58.93;100911.85;1769798;81;21046;-77
2021/03/11 11:08:44;;;;;;;24.50;7.13;;;;;;;0.24;58.42;100904.01;1759633;81;21048;-79
2021/03/11 11:11:13;;;;;;;37.00;14.77;;;;;;;0.16;57.20;100909.27;1759544;81;21037;-81
2021/03/11 11:13:43;;;;;;;31.43;10.33;;;;;;;0.02;55.51;100909.16;1757411;81;21338;-81
2021/03/11 11:16:11;;;;;;;24.90;8.87;;;;;;;-0.20;55.21;100907.62;1755147;81;21143;-81
2021/03/11 11:18:40;;;;;;;11.83;4.83;;;;;;;-0.36;57.17;100910.70;1771848;81;21059;-79
2021/03/11 11:21:09;;;;;;;10.93;4.33;;;;;;;-0.47;58.49;100907.27;1764343;79;21155;-79
2021/03/11 11:23:39;;;;;;;7.30;3.57;;;;;;;-0.50;58.45;100907.89;1740280;81;20942;-81
2021/03/11 11:26:10;;;;;;;3.70;2.20;;;;;;;-0.57;58.16;100903.36;1760962;81;22360;-83
2021/03/11 11:28:38;;;;;;;6.63;2.90;;;;;;;-0.43;60.42;100901.33;1756842;79;21009;-76
2021/03/11 11:31:07;;;;;;;7.80;3.20;;;;;;;-0.15;61.48;100895.91;1725396;80;21060;-78
2021/03/11 11:33:36;;;;;;;6.23;3.83;;;;;;;0.17;61.78;100888.36;1773454;80;21014;-76
2021/03/11 11:36:05;;;;;;;10.33;3.93;;;;;;;0.40;61.01;100880.08;1729012;82;21005;-82
2021/03/11 11:38:33;;;;;;;15.67;6.57;;;;;;;0.52;60.50;100872.74;1744181;82;21205;-82
2021/03/11 11:41:05;;;;;;;9.30;3.93;;;;;;;0.51;59.56;100879.88;1738324;82;20969;-80
2021/03/11 11:43:33;;;;;;;11.60;4.03;;;;;;;0.34;57.36;100883.94;1742054;81;21099;-81
2021/03/11 11:46:03;;;;;;;10.30;4.37;;;;;;;0.37;59.34;100873.11;1736370;82;21657;-77
2021/03/11 11:48:31;;;;;;;6.50;3.73;;;;;;;0.60;59.31;100881.61;1735661;82;21614;-82